Time;durP1;ratioP1;P1;durP2;ratioP2;P2;SDS_P1;SDS_P2;PMS_P1;PMS_P2;Temp;Humidity;BMP_temperature;BMP_pressure;BME280_temperature;BME280_humidity;BME280_pressure;Samples;Min_cycle;Max_cycle;Signal;HPM_P1;HPM_P2
2021/12/22 00:07:45;;;;;;;0.20;0.10;;;10.40;99.90;;;;;;20976548;28;20628;-73
2021/12/22 00:17:50;;;;;;;0.20;0.00;;;10.40;99.90;;;;;;20993657;28;20291;-73
2021/12/22 00:27:55;;;;;;;0.20;0.20;;;10.50;99.90;;;;;;20992107;28;20225;-74
2021/12/22 00:38:00;;;;;;;0.20;0.00;;;10.50;99.90;;;;;;20933323;28;20205;-73
2021/12/22 00:48:05;;;;;;;0.20;0.00;;;10.60;99.90;;;;;;20908131;28;20340;-72
2021/12/22 00:58:10;;;;;;;0.20;0.10;;;10.60;99.90;;;;;;20908011;28;20284;-72
2021/12/22 01:08:13;;;;;;;0.20;0.10;;;10.70;99.90;;;;;;20779813;23;20238;-78
2021/12/22 01:18:29;;;;;;;0.20;0.00;;;10.60;99.90;;;;;;20746897;28;20561;-78
2021/12/22 01:28:33;;;;;;;0.20;0.10;;;10.60;99.90;;;;;;20746115;28;20249;-79
2021/12/22 01:38:38;;;;;;;0.20;0.10;;;10.60;99.90;;;;;;20746670;28;20680;-82
2021/12/22 02:10:03;;;;;;;0.20;0.10;;;10.40;99.90;;;;;;20392598;28;20229;-74
2021/12/22 02:20:09;;;;;;;0.20;0.10;;;10.50;99.90;;;;;;20434236;29;20202;-74
2021/12/22 02:30:17;;;;;;;0.20;0.10;;;10.50;99.90;;;;;;20434130;29;20240;-74
2021/12/22 02:40:27;;;;;;;0.20;0.00;;;10.50;99.90;;;;;;20358937;29;20285;-72
2021/12/22 02:50:32;;;;;;;0.20;0.10;;;10.80;99.90;;;;;;20353902;29;20225;-73
2021/12/22 03:00:49;;;;;;;0.20;0.00;;;10.60;99.90;;;;;;20362433;29;20229;-72
2021/12/22 03:10:53;;;;;;;0.20;0.10;;;10.60;99.90;;;;;;20430338;29;20228;-73
2021/12/22 03:21:07;;;;;;;0.20;0.10;;;10.60;99.90;;;;;;20444262;29;20558;-73
2021/12/22 03:31:10;;;;;;;0.20;0.10;;;10.50;99.90;;;;;;20428226;29;20233;-71
2021/12/22 03:41:15;;;;;;;0.20;0.10;;;10.60;99.90;;;;;;20427042;29;20210;-74
2021/12/22 03:51:19;;;;;;;0.20;0.10;;;10.70;99.90;;;;;;20426713;29;20574;-73
2021/12/22 04:01:24;;;;;;;0.27;0.20;;;10.60;99.90;;;;;;20427236;29;20264;-73
2021/12/22 04:11:28;;;;;;;0.23;0.17;;;10.50;99.90;;;;;;20424686;29;20230;-74
2021/12/22 04:21:33;;;;;;;0.20;0.10;;;10.50;99.90;;;;;;20425231;29;20228;-73
2021/12/22 04:31:36;;;;;;;0.37;0.37;;;10.60;99.90;;;;;;20438626;29;20316;-73
2021/12/22 04:41:42;;;;;;;0.20;0.10;;;10.60;99.90;;;;;;20439070;29;20315;-74
2021/12/22 04:51:52;;;;;;;0.20;0.10;;;10.60;99.90;;;;;;20422731;29;20316;-74
2021/12/22 05:01:57;;;;;;;0.20;0.07;;;10.70;99.90;;;;;;20424888;29;20311;-73
2021/12/22 05:12:01;;;;;;;0.20;0.10;;;10.80;99.90;;;;;;20422242;29;20316;-73
2021/12/22 05:22:06;;;;;;;0.20;0.10;;;10.80;99.90;;;;;;20434022;29;20222;-75
2021/12/22 05:32:10;;;;;;;0.20;0.00;;;10.80;99.90;;;;;;20436211;29;20233;-74
2021/12/22 05:42:15;;;;;;;0.20;0.17;;;10.80;99.90;;;;;;20441331;29;20193;-73
2021/12/22 05:52:18;;;;;;;2.00;1.90;;;10.70;99.90;;;;;;20416798;29;20233;-73
2021/12/22 06:02:23;;;;;;;0.20;0.10;;;10.80;99.90;;;;;;20432365;29;20260;-74
2021/12/22 06:12:27;;;;;;;0.20;0.10;;;10.80;99.90;;;;;;20434914;29;20236;-74
2021/12/22 06:22:34;;;;;;;0.40;0.40;;;10.90;99.90;;;;;;20433860;29;20297;-74
2021/12/22 06:32:38;;;;;;;0.20;0.10;;;11.00;99.90;;;;;;20431266;29;20239;-74
2021/12/22 06:42:44;;;;;;;0.20;0.10;;;11.00;99.90;;;;;;20431588;29;20217;-73
2021/12/22 06:52:48;;;;;;;0.20;0.10;;;10.80;99.90;;;;;;20428718;29;20320;-74
2021/12/22 07:02:53;;;;;;;0.20;0.10;;;10.90;99.90;;;;;;20425107;29;20617;-74
2021/12/22 07:12:58;;;;;;;0.20;0.10;;;11.10;99.90;;;;;;20423176;29;20229;-72
2021/12/22 07:23:03;;;;;;;0.20;0.10;;;11.10;99.90;;;;;;20426812;29;20257;-73
2021/12/22 07:33:08;;;;;;;0.20;0.00;;;11.00;99.90;;;;;;20425638;29;20538;-74
2021/12/22 07:43:13;;;;;;;0.20;0.10;;;10.80;99.90;;;;;;20426264;29;20230;-72
2021/12/22 07:53:17;;;;;;;0.20;0.10;;;10.70;99.90;;;;;;20424309;29;20193;-74
2021/12/22 08:03:24;;;;;;;0.20;0.10;;;10.70;99.90;;;;;;20424569;29;20230;-73
2021/12/22 08:13:47;;;;;;;5.60;2.50;;;10.80;99.90;;;;;;20426260;29;20660;-72
2021/12/22 08:23:53;;;;;;;0.20;0.10;;;10.90;99.90;;;;;;20420139;29;20703;-71
2021/12/22 08:33:57;;;;;;;1.97;0.80;;;11.00;99.90;;;;;;20402167;29;20280;-70
2021/12/22 08:44:05;;;;;;;0.20;0.10;;;10.70;99.90;;;;;;20418375;29;20260;-70
2021/12/22 08:54:09;;;;;;;0.23;0.23;;;10.60;99.90;;;;;;20433632;29;20735;-69
2021/12/22 09:04:15;;;;;;;0.20;0.00;;;10.80;99.90;;;;;;20418462;29;20281;-70
2021/12/22 09:14:21;;;;;;;0.20;0.10;;;11.00;99.90;;;;;;20417905;29;20205;-69
2021/12/22 09:24:27;;;;;;;0.20;0.10;;;11.10;99.90;;;;;;20417450;29;20225;-70
2021/12/22 09:34:31;;;;;;;0.87;0.87;;;10.80;99.90;;;;;;20416898;29;20198;-70
2021/12/22 09:44:44;;;;;;;0.20;0.10;;;10.90;99.90;;;;;;20418067;29;20553;-69
2021/12/22 09:54:50;;;;;;;120.73;110.67;;;11.00;99.90;;;;;;20407084;29;20659;-70
2021/12/22 10:04:55;;;;;;;0.20;0.10;;;11.10;99.90;;;;;;20379988;29;20297;-71
2021/12/22 10:15:01;;;;;;;0.20;0.10;;;11.10;99.90;;;;;;20416715;29;20683;-69
2021/12/22 10:25:13;;;;;;;0.20;0.10;;;11.00;99.90;;;;;;20415943;29;20229;-70
2021/12/22 10:35:18;;;;;;;0.20;0.10;;;11.10;99.90;;;;;;20420248;29;20204;-69
2021/12/22 10:45:24;;;;;;;0.20;0.10;;;11.40;99.90;;;;;;20425482;29;20229;-70
2021/12/22 10:55:37;;;;;;;0.20;0.10;;;11.60;99.90;;;;;;20440755;28;20288;-69
2021/12/22 11:05:47;;;;;;;0.20;0.10;;;11.70;99.90;;;;;;20423149;29;20729;-70
2021/12/22 11:15:53;;;;;;;0.20;0.10;;;11.90;99.90;;;;;;20424368;29;20287;-70
2021/12/22 11:25:59;;;;;;;0.20;0.10;;;12.10;99.90;;;;;;20423935;29;20320;-69
2021/12/22 11:36:04;;;;;;;0.20;0.10;;;12.40;99.90;;;;;;20422556;29;20229;-68
2021/12/22 11:46:10;;;;;;;0.20;0.10;;;12.30;99.90;;;;;;20437071;28;20239;-70
2021/12/22 11:56:37;;;;;;;1.50;1.50;;;12.10;99.90;;;;;;20419501;29;20284;-75
2021/12/22 12:06:52;;;;;;;0.20;0.10;;;12.20;99.90;;;;;;20419597;29;20247;-70
2021/12/22 12:27:43;;;;;;;0.20;0.00;;;12.10;99.90;;;;;;20418452;29;20319;-70
2021/12/22 12:38:08;;;;;;;0.20;0.10;;;12.10;99.90;;;;;;20417350;29;20205;-70
2021/12/22 12:48:28;;;;;;;0.20;0.10;;;12.20;99.90;;;;;;20414248;29;20229;-69
2021/12/22 12:58:34;;;;;;;0.20;0.10;;;12.40;99.90;;;;;;20417317;29;20221;-68
2021/12/22 13:08:40;;;;;;;0.20;0.00;;;12.40;99.90;;;;;;20416358;29;20240;-69
2021/12/22 13:18:47;;;;;;;0.30;0.30;;;12.20;99.90;;;;;;20415102;29;20261;-71
2021/12/22 13:28:52;;;;;;;0.20;0.10;;;12.40;99.90;;;;;;20417061;29;20221;-70
2021/12/22 13:39:00;;;;;;;0.20;0.07;;;12.20;99.90;;;;;;20415163;29;20197;-71
2021/12/22 13:49:09;;;;;;;0.20;0.10;;;12.30;99.90;;;;;;20430434;29;20388;-69
2021/12/22 13:59:23;;;;;;;0.20;0.10;;;12.30;99.90;;;;;;20431260;29;20194;-70
2021/12/22 14:09:30;;;;;;;0.20;0.10;;;12.20;99.90;;;;;;20429400;29;20237;-71
2021/12/22 14:20:03;;;;;;;0.20;0.00;;;11.90;99.90;;;;;;20411964;29;20729;-71
2021/12/22 14:30:20;;;;;;;0.20;0.10;;;12.00;99.90;;;;;;20427444;29;20231;-71
2021/12/22 14:40:26;;;;;;;0.20;0.10;;;11.80;99.90;;;;;;20422723;29;20190;-71
2021/12/22 14:50:31;;;;;;;0.20;0.10;;;11.90;99.90;;;;;;20423790;29;20276;-71
2021/12/22 15:00:36;;;;;;;0.20;0.10;;;11.70;99.90;;;;;;20421784;29;20308;-69
2021/12/22 15:10:41;;;;;;;0.20;0.10;;;11.70;99.90;;;;;;20412493;29;20633;-71
2021/12/22 15:20:46;;;;;;;0.20;0.10;;;11.80;99.90;;;;;;20411568;29;20209;-72
2021/12/22 15:30:53;;;;;;;0.20;0.00;;;11.80;99.90;;;;;;20410605;29;20319;-71
2021/12/22 15:40:58;;;;;;;0.20;0.10;;;11.70;99.90;;;;;;20409066;29;20666;-70
2021/12/22 15:51:05;;;;;;;0.20;0.10;;;11.50;99.90;;;;;;20410445;29;20237;-71
2021/12/22 16:01:09;;;;;;;0.20;0.10;;;11.40;99.90;;;;;;20423266;28;20320;-71
2021/12/22 16:11:15;;;;;;;0.20;0.10;;;11.50;99.90;;;;;;20407181;29;20225;-71
2021/12/22 16:21:19;;;;;;;0.20;0.10;;;11.40;99.90;;;;;;20406749;29;20565;-73
2021/12/22 16:31:24;;;;;;;0.20;0.00;;;11.50;99.90;;;;;;20407782;29;20304;-72
2021/12/22 16:41:30;;;;;;;0.20;0.10;;;11.40;99.90;;;;;;20404383;29;20205;-71
2021/12/22 16:51:35;;;;;;;0.20;0.10;;;11.40;99.90;;;;;;20405698;29;20225;-70
2021/12/22 17:01:39;;;;;;;0.20;0.10;;;11.50;99.90;;;;;;20405472;29;20317;-70
2021/12/22 17:11:48;;;;;;;0.27;0.23;;;11.40;99.90;;;;;;20405243;29;20244;-70
2021/12/22 17:21:56;;;;;;;0.20;0.10;;;11.20;99.90;;;;;;20408332;29;20198;-70
2021/12/22 17:32:01;;;;;;;0.20;0.10;;;11.10;99.90;;;;;;20418578;29;20227;-71
2021/12/22 17:42:06;;;;;;;6.97;6.33;;;11.10;99.90;;;;;;20418966;29;20212;-70
2021/12/22 17:52:11;;;;;;;0.20;0.00;;;11.00;99.90;;;;;;20459028;29;20228;-68
2021/12/22 18:02:22;;;;;;;0.20;0.10;;;11.10;99.90;;;;;;20510350;28;20244;-70
2021/12/22 18:12:28;;;;;;;0.20;0.10;;;11.10;99.90;;;;;;20478948;29;20229;-70
2021/12/22 18:22:34;;;;;;;0.20;0.10;;;11.00;99.90;;;;;;20430809;29;20198;-67
2021/12/22 18:32:41;;;;;;;0.20;0.10;;;11.00;99.90;;;;;;20427513;29;20691;-68
2021/12/22 18:42:47;;;;;;;0.20;0.10;;;10.90;99.90;;;;;;20441883;29;20210;-68
2021/12/22 18:52:53;;;;;;;0.20;0.10;;;11.00;99.90;;;;;;20427590;29;20229;-68
2021/12/22 19:02:56;;;;;;;0.20;0.00;;;11.00;99.90;;;;;;20424684;29;20264;-69
2021/12/22 19:13:07;;;;;;;0.40;0.40;;;11.00;99.90;;;;;;20437381;29;20229;-69
2021/12/22 19:23:10;;;;;;;0.20;0.10;;;10.90;99.90;;;;;;20423901;29;20197;-69
2021/12/22 19:33:16;;;;;;;0.20;0.10;;;10.90;99.90;;;;;;20422120;29;20229;-69
2021/12/22 19:43:19;;;;;;;0.20;0.10;;;11.00;99.90;;;;;;20437749;28;20202;-69
2021/12/22 19:53:25;;;;;;;0.20;0.00;;;11.00;99.90;;;;;;20421210;29;21074;-68
2021/12/22 20:03:33;;;;;;;0.20;0.10;;;11.10;99.90;;;;;;20421890;29;20312;-70
2021/12/22 20:13:41;;;;;;;0.20;0.10;;;11.10;99.90;;;;;;20421130;29;20239;-71
2021/12/22 20:23:45;;;;;;;0.20;0.10;;;11.10;99.90;;;;;;20420975;29;20204;-69
2021/12/22 20:33:50;;;;;;;0.20;0.10;;;11.10;99.90;;;;;;20419043;29;20241;-69
2021/12/22 20:43:53;;;;;;;0.20;0.10;;;11.00;99.90;;;;;;20420038;29;20269;-70
2021/12/22 20:53:59;;;;;;;0.20;0.10;;;11.00;99.90;;;;;;20418712;29;20585;-69
2021/12/22 21:04:03;;;;;;;0.20;0.00;;;11.00;99.90;;;;;;20419695;29;20258;-69
2021/12/22 21:14:10;;;;;;;0.20;0.00;;;11.00;99.90;;;;;;20420237;29;20319;-69
2021/12/22 21:24:14;;;;;;;0.20;0.10;;;11.00;99.90;;;;;;20419605;29;20293;-69
2021/12/22 21:34:19;;;;;;;0.20;0.10;;;11.00;99.90;;;;;;20401409;29;20695;-69
2021/12/22 21:44:23;;;;;;;0.20;0.10;;;11.00;99.90;;;;;;20418588;29;20663;-69
2021/12/22 21:54:29;;;;;;;0.20;0.10;;;11.00;99.90;;;;;;20418064;29;20269;-70
2021/12/22 22:04:42;;;;;;;;;;;;;;;;;;;;;
2021/12/22 22:14:48;;;;;;;0.20;0.10;;;11.10;99.90;;;;;;20435624;28;20835;-69
2021/12/22 22:24:51;;;;;;;0.20;0.10;;;11.10;99.90;;;;;;20429631;29;20623;-70
2021/12/22 22:34:56;;;;;;;0.20;0.10;;;11.00;99.90;;;;;;20428050;29;20254;-70
2021/12/22 22:45:00;;;;;;;0.20;0.00;;;11.10;99.90;;;;;;20426337;29;20206;-70
2021/12/22 22:55:06;;;;;;;0.20;0.10;;;11.20;99.90;;;;;;20427211;29;20566;-71
2021/12/22 23:05:10;;;;;;;1.03;1.03;;;11.10;99.90;;;;;;20349001;29;20253;-69
2021/12/22 23:15:20;;;;;;;0.20;0.17;;;11.10;99.90;;;;;;20398396;29;20312;-72
2021/12/22 23:25:24;;;;;;;0.20;0.10;;;11.10;99.90;;;;;;20426215;29;20197;-69
2021/12/22 23:35:29;;;;;;;0.20;0.10;;;11.00;99.90;;;;;;20424672;29;20651;-69
2021/12/22 23:55:55;;;;;;;0.20;0.00;;;11.10;99.90;;;;;;20424590;29;20701;-70
